Time;durP1;ratioP1;P1;durP2;ratioP2;P2;SDS_P1;SDS_P2;PMS_P1;PMS_P2;Temp;Humidity;BMP_temperature;BMP_pressure;BME280_temperature;BME280_humidity;BME280_pressure;Samples;Min_cycle;Max_cycle;Signal;HPM_P1;HPM_P2
2021/11/05 00:01:21;;;;;;;49.27;29.57;;;;;;;8.22;81.34;99967.13;5041219;28;20584;-73
2021/11/05 00:03:48;;;;;;;47.47;30.30;;;;;;;8.09;81.79;99970.00;5044792;28;20481;-73
2021/11/05 00:06:15;;;;;;;44.70;29.60;;;;;;;7.97;81.99;99971.91;5042775;28;20504;-73
2021/11/05 00:08:41;;;;;;;51.67;29.40;;;;;;;7.99;82.23;99971.78;5044043;28;20441;-72
2021/11/05 00:11:08;;;;;;;48.60;30.07;;;;;;;7.89;82.24;99975.19;5042775;28;20505;-72
2021/11/05 00:13:35;;;;;;;50.10;31.33;;;;;;;7.99;82.47;99979.75;5043527;28;20517;-72
2021/11/05 00:16:01;;;;;;;51.90;30.03;;;;;;;8.08;81.94;99977.13;5043292;28;20507;-73
2021/11/05 00:18:29;;;;;;;45.53;29.37;;;;;;;8.04;81.80;99970.41;5043954;28;20448;-73
2021/11/05 00:20:56;;;;;;;45.97;28.27;;;;;;;7.98;82.04;99978.06;5042388;28;20481;-74
2021/11/05 00:23:23;;;;;;;51.17;28.87;;;;;;;8.04;81.63;99990.88;5043709;28;20494;-72
2021/11/05 00:25:50;;;;;;;47.60;30.00;;;;;;;8.05;81.59;99996.03;5043052;28;20481;-73
2021/11/05 00:28:16;;;;;;;48.40;27.90;;;;;;;7.89;82.38;99993.00;5043899;28;20446;-73
2021/11/05 00:30:45;;;;;;;49.10;29.50;;;;;;;7.85;82.63;99999.56;5042196;28;20473;-73
2021/11/05 00:33:12;;;;;;;41.40;26.30;;;;;;;7.99;81.79;99998.41;5043350;28;20434;-72
2021/11/05 00:35:40;;;;;;;46.47;28.43;;;;;;;7.91;82.31;100015.84;5042556;28;20488;-72
2021/11/05 00:38:07;;;;;;;48.07;28.53;;;;;;;8.01;82.23;100015.91;5024085;28;20479;-72
2021/11/05 00:40:33;;;;;;;42.33;27.83;;;;;;;7.98;82.27;100018.81;5026148;28;20481;-72
2021/11/05 00:43:00;;;;;;;40.93;25.70;;;;;;;8.06;81.72;100019.03;5042581;28;20486;-72
2021/11/05 00:45:27;;;;;;;41.53;28.23;;;;;;;8.10;81.60;100030.25;5042812;28;20481;-72
2021/11/05 00:47:54;;;;;;;39.37;25.20;;;;;;;7.97;81.69;100021.63;5043437;28;20456;-72
2021/11/05 00:50:20;;;;;;;44.63;25.53;;;;;;;7.88;82.02;100024.09;5041641;28;20565;-72
2021/11/05 00:52:48;;;;;;;38.37;22.23;;;;;;;7.94;81.67;100029.88;5042938;28;20513;-72
2021/11/05 00:55:15;;;;;;;35.40;22.10;;;;;;;7.73;82.72;100034.19;5054692;28;20532;-74
2021/11/05 00:57:42;;;;;;;33.43;22.80;;;;;;;7.76;82.64;100038.44;5063359;28;20937;-73
2021/11/05 01:00:11;;;;;;;39.20;26.03;;;;;;;7.84;82.65;100037.78;5049392;28;20474;-73
2021/11/05 01:02:37;;;;;;;40.37;23.03;;;;;;;8.05;81.85;100035.13;5042513;28;20450;-74
2021/11/05 01:05:04;;;;;;;43.50;26.10;;;;;;;8.09;81.42;100050.72;5043381;28;20466;-74
2021/11/05 01:07:31;;;;;;;42.47;26.00;;;;;;;8.21;81.22;100048.84;5041950;28;20534;-73
2021/11/05 01:09:59;;;;;;;47.93;26.93;;;;;;;8.15;81.20;100052.03;5042235;28;20461;-73
2021/11/05 01:12:26;;;;;;;41.43;26.20;;;;;;;8.03;81.63;100056.56;5041263;28;20566;-73
2021/11/05 01:14:53;;;;;;;46.50;26.33;;;;;;;7.96;81.84;100055.38;5043434;28;20458;-72
2021/11/05 01:17:19;;;;;;;44.87;25.50;;;;;;;8.10;81.50;100054.22;5041694;28;20485;-72
2021/11/05 01:19:46;;;;;;;47.23;27.23;;;;;;;8.03;81.75;100061.88;5042975;28;20453;-72
2021/11/05 01:22:13;;;;;;;51.50;28.10;;;;;;;8.05;81.88;100056.44;5040878;28;20497;-73
2021/11/05 01:24:40;;;;;;;51.73;29.37;;;;;;;8.04;81.75;100071.56;5042443;28;20446;-72
2021/11/05 01:27:08;;;;;;;48.83;28.10;;;;;;;8.26;81.31;100080.41;5041924;28;20474;-73
2021/11/05 01:29:34;;;;;;;48.37;27.60;;;;;;;8.20;81.04;100076.44;5042250;28;20486;-72
2021/11/05 01:32:01;;;;;;;47.20;27.10;;;;;;;7.96;81.90;100071.34;5041578;28;20485;-74
2021/11/05 01:34:28;;;;;;;48.03;28.10;;;;;;;7.83;82.27;100074.22;5042581;28;20584;-73
2021/11/05 01:36:55;;;;;;;55.03;28.93;;;;;;;7.96;82.30;100078.50;5041505;28;20568;-72
2021/11/05 01:39:22;;;;;;;50.97;27.23;;;;;;;8.07;81.93;100081.97;5041732;28;20489;-72
2021/11/05 01:41:48;;;;;;;48.20;28.70;;;;;;;8.05;81.43;100083.06;5040937;28;20512;-73
2021/11/05 01:44:17;;;;;;;56.10;28.40;;;;;;;8.07;81.57;100084.63;5042610;28;20623;-73
2021/11/05 01:46:44;;;;;;;48.77;28.33;;;;;;;8.01;81.50;100090.47;5041658;28;20564;-73
2021/11/05 01:49:12;;;;;;;58.13;29.20;;;;;;;7.99;81.70;100087.09;5042349;28;20568;-73
2021/11/05 01:51:39;;;;;;;46.60;25.80;;;;;;;7.78;82.18;100099.50;5039784;28;20535;-72
2021/11/05 01:54:08;;;;;;;58.23;28.40;;;;;;;8.00;81.47;100093.25;5042004;28;20445;-73
2021/11/05 01:56:35;;;;;;;48.10;26.57;;;;;;;8.14;81.11;100105.41;5041469;28;20474;-73
2021/11/05 01:59:02;;;;;;;46.10;26.67;;;;;;;8.08;80.89;100104.94;5041852;28;20525;-73
2021/11/05 02:01:30;;;;;;;48.47;26.73;;;;;;;7.96;81.43;100099.81;5040748;28;20477;-73
2021/11/05 02:03:57;;;;;;;46.67;25.60;;;;;;;8.03;80.93;100104.47;5041756;28;20469;-73
2021/11/05 02:06:24;;;;;;;52.63;26.00;;;;;;;7.80;81.73;100106.41;5040854;28;20482;-72
2021/11/05 02:08:52;;;;;;;45.17;26.17;;;;;;;8.05;81.43;100104.34;5041793;28;20485;-72
2021/11/05 02:11:19;;;;;;;45.77;26.03;;;;;;;8.03;80.75;100106.31;5040996;28;20501;-73
2021/11/05 02:13:47;;;;;;;52.33;27.03;;;;;;;7.96;81.15;100113.94;5040717;28;20469;-73
2021/11/05 02:16:14;;;;;;;47.43;24.80;;;;;;;7.88;81.58;100117.25;5041618;28;20485;-72
2021/11/05 02:18:43;;;;;;;44.77;26.20;;;;;;;7.83;81.77;100119.47;5041452;28;20449;-73
2021/11/05 02:21:15;;;;;;;48.93;24.87;;;;;;;7.88;81.57;100116.41;5040332;28;20508;-72
2021/11/05 02:23:43;;;;;;;42.87;23.97;;;;;;;7.87;81.46;100118.22;5041060;28;20541;-73
2021/11/05 02:26:10;;;;;;;54.03;25.87;;;;;;;7.54;82.85;100122.66;5041032;28;21172;-73
2021/11/05 02:28:37;;;;;;;50.50;26.17;;;;;;;7.52;83.15;100129.94;5041633;28;20486;-73
2021/11/05 02:31:04;;;;;;;53.30;26.60;;;;;;;7.61;82.92;100133.66;5040741;28;20497;-74
2021/11/05 02:33:31;;;;;;;46.27;25.97;;;;;;;7.61;83.02;100127.50;5040616;28;20485;-73
2021/11/05 02:35:58;;;;;;;56.70;28.30;;;;;;;7.66;82.76;100135.97;5040830;28;20991;-73
2021/11/05 02:38:25;;;;;;;52.30;26.53;;;;;;;7.70;82.76;100134.72;5041735;28;20488;-73
2021/11/05 02:40:53;;;;;;;45.53;23.57;;;;;;;7.82;82.50;100136.38;5040941;28;20488;-73
2021/11/05 02:43:20;;;;;;;47.30;26.07;;;;;;;7.88;81.77;100137.69;5040519;28;20474;-72
2021/11/05 02:45:48;;;;;;;50.10;26.07;;;;;;;7.68;82.19;100136.69;5040744;28;20505;-72
2021/11/05 02:48:15;;;;;;;49.30;25.30;;;;;;;7.57;83.26;100142.00;5041241;28;20441;-73
2021/11/05 02:50:42;;;;;;;48.73;24.43;;;;;;;7.54;82.98;100141.28;5039610;28;20501;-73
2021/11/05 02:53:08;;;;;;;53.17;25.00;;;;;;;7.51;83.26;100149.50;5040523;28;20541;-72
2021/11/05 02:55:35;;;;;;;49.53;25.70;;;;;;;7.56;83.32;100158.97;5040557;28;20511;-72
2021/11/05 02:58:03;;;;;;;48.97;24.63;;;;;;;7.71;82.71;100150.56;5041784;28;20433;-72
2021/11/05 03:00:30;;;;;;;55.47;27.00;;;;;;;7.89;82.42;100161.53;5039849;28;20525;-72
2021/11/05 03:02:57;;;;;;;52.17;25.40;;;;;;;7.83;81.90;100159.38;5040447;28;20537;-73
2021/11/05 03:05:23;;;;;;;50.57;24.80;;;;;;;7.85;82.21;100159.25;5040384;28;20484;-73
2021/11/05 03:07:51;;;;;;;48.20;25.90;;;;;;;7.74;82.06;100162.78;5040927;28;20541;-72
2021/11/05 03:10:18;;;;;;;52.00;27.10;;;;;;;7.75;82.38;100166.31;5040511;28;20482;-72
2021/11/05 03:12:46;;;;;;;44.43;24.20;;;;;;;7.54;82.64;100175.88;5042823;28;21092;-72
2021/11/05 03:15:14;;;;;;;46.97;23.67;;;;;;;7.77;82.37;100181.16;5044769;28;20449;-73
2021/11/05 03:17:41;;;;;;;56.43;26.70;;;;;;;7.52;83.07;100182.31;5044729;28;20469;-75
2021/11/05 03:20:09;;;;;;;55.30;25.57;;;;;;;7.49;83.35;100185.19;5044111;28;20477;-74
2021/11/05 03:22:36;;;;;;;45.80;25.13;;;;;;;7.47;83.57;100185.31;5024543;28;20474;-72
2021/11/05 03:25:02;;;;;;;53.23;25.40;;;;;;;7.52;83.83;100190.28;5027866;28;20939;-72
2021/11/05 03:27:29;;;;;;;46.47;25.70;;;;;;;7.47;83.62;100190.63;5044031;28;20493;-73
2021/11/05 03:29:56;;;;;;;50.90;23.97;;;;;;;7.53;83.47;100197.28;5044901;28;20511;-73
2021/11/05 03:32:24;;;;;;;51.13;25.77;;;;;;;7.64;83.34;100202.59;5043712;28;20509;-74
2021/11/05 03:34:50;;;;;;;48.37;24.90;;;;;;;7.74;82.92;100208.00;5044790;28;20442;-73
2021/11/05 03:37:17;;;;;;;46.90;24.30;;;;;;;7.58;83.53;100208.41;5043872;28;20751;-73
2021/11/05 03:39:44;;;;;;;48.13;26.30;;;;;;;7.63;83.13;100219.53;5045020;28;20468;-73
2021/11/05 03:42:11;;;;;;;43.37;22.57;;;;;;;7.57;83.51;100212.03;5042814;28;20477;-73
2021/11/05 03:44:37;;;;;;;50.47;24.70;;;;;;;7.66;83.09;100219.28;5044551;28;20481;-72
2021/11/05 03:47:05;;;;;;;46.07;25.20;;;;;;;7.56;83.38;100228.97;5043474;28;21203;-72
2021/11/05 03:49:33;;;;;;;47.00;25.00;;;;;;;7.62;83.51;100228.50;5043615;28;20568;-72
2021/11/05 03:51:59;;;;;;;48.80;25.07;;;;;;;7.64;83.43;100237.19;5042962;28;20509;-73
2021/11/05 03:54:26;;;;;;;50.40;25.40;;;;;;;7.77;82.95;100245.03;5044363;28;20524;-72
2021/11/05 03:56:53;;;;;;;48.40;25.03;;;;;;;7.78;83.19;100252.06;5043485;28;20497;-72
2021/11/05 03:59:19;;;;;;;47.60;25.70;;;;;;;7.79;82.80;100253.72;5044586;28;20485;-73
2021/11/05 04:01:46;;;;;;;48.37;23.77;;;;;;;7.79;82.89;100256.41;5042899;28;20528;-72
2021/11/05 04:04:13;;;;;;;47.43;24.37;;;;;;;7.65;83.37;100254.00;5044423;28;20473;-72
2021/11/05 04:06:41;;;;;;;52.80;27.13;;;;;;;7.68;83.53;100256.41;5042764;28;20536;-72
2021/11/05 04:09:08;;;;;;;48.07;24.40;;;;;;;7.58;83.84;100261.59;5043700;28;20442;-72
2021/11/05 04:11:35;;;;;;;49.50;26.03;;;;;;;7.60;83.63;100259.66;5042442;28;20568;-72
2021/11/05 04:14:01;;;;;;;46.53;23.67;;;;;;;7.60;83.93;100264.16;5043600;28;20482;-73
2021/11/05 04:16:28;;;;;;;49.73;24.80;;;;;;;7.63;83.84;100275.41;5043674;28;20513;-73
2021/11/05 04:18:54;;;;;;;47.40;24.70;;;;;;;7.58;83.87;100263.44;5043557;28;20472;-73
2021/11/05 04:21:22;;;;;;;53.70;25.67;;;;;;;7.62;83.83;100280.84;5042561;28;20476;-72
2021/11/05 04:23:50;;;;;;;53.73;26.87;;;;;;;7.81;83.57;100283.75;5043076;28;20438;-73
2021/11/05 04:26:17;;;;;;;49.63;24.23;;;;;;;7.86;83.23;100281.56;5043163;28;20481;-72
2021/11/05 04:28:43;;;;;;;46.27;24.30;;;;;;;7.69;83.98;100288.22;5044084;28;20517;-73
2021/11/05 04:31:10;;;;;;;45.60;25.13;;;;;;;7.68;83.92;100285.69;5042125;28;20524;-73
2021/11/05 04:33:37;;;;;;;54.07;25.43;;;;;;;7.77;83.87;100287.59;5043562;28;20981;-72
2021/11/05 04:36:05;;;;;;;59.27;24.60;;;;;;;7.69;83.96;100292.69;5042054;28;20505;-73
2021/11/05 04:38:33;;;;;;;44.47;25.87;;;;;;;7.48;84.52;100293.44;5043807;28;20434;-72
2021/11/05 04:41:01;;;;;;;47.37;24.97;;;;;;;7.70;83.92;100302.38;5042554;28;20553;-73
2021/11/05 04:43:28;;;;;;;48.20;23.43;;;;;;;7.49;84.28;100300.41;5048123;28;20450;-71
2021/11/05 04:45:55;;;;;;;46.80;23.80;;;;;;;7.61;84.17;100311.94;5043578;28;20477;-72
2021/11/05 04:48:22;;;;;;;45.70;23.20;;;;;;;7.71;84.18;100309.41;5043954;28;20492;-72
2021/11/05 04:50:49;;;;;;;46.30;24.53;;;;;;;7.64;84.14;100317.00;5042185;28;20500;-72
2021/11/05 04:53:15;;;;;;;42.03;22.63;;;;;;;7.58;84.35;100319.31;5043490;28;20572;-72
2021/11/05 04:55:42;;;;;;;44.43;23.13;;;;;;;7.66;84.17;100320.41;5044000;28;20493;-72
2021/11/05 04:58:10;;;;;;;49.90;23.67;;;;;;;7.52;84.37;100326.78;5044959;28;20426;-73
2021/11/05 05:00:37;;;;;;;45.63;21.67;;;;;;;7.52;84.30;100328.63;5043657;28;20508;-72
2021/11/05 05:03:04;;;;;;;41.47;19.90;;;;;;;7.73;83.76;100331.41;5042999;28;20474;-74
2021/11/05 05:05:31;;;;;;;47.13;21.33;;;;;;;7.52;84.68;100342.75;5042862;28;20465;-73
2021/11/05 05:07:58;;;;;;;41.40;20.87;;;;;;;7.46;84.67;100339.72;5044313;28;20727;-74
2021/11/05 05:10:25;;;;;;;44.30;21.17;;;;;;;7.60;84.55;100339.50;5044259;28;20465;-71
2021/11/05 05:12:52;;;;;;;43.13;22.03;;;;;;;7.73;84.08;100342.06;5042833;28;20492;-74
2021/11/05 05:15:20;;;;;;;42.73;21.97;;;;;;;7.73;84.28;100342.91;5042245;28;20477;-73
2021/11/05 05:17:47;;;;;;;47.50;23.60;;;;;;;7.65;84.45;100355.09;5043023;28;20461;-73
2021/11/05 05:20:16;;;;;;;48.30;25.67;;;;;;;7.81;83.83;100347.63;5039512;28;21029;-73
2021/11/05 05:22:45;;;;;;;47.10;24.10;;;;;;;7.54;84.71;100355.94;5018749;28;20473;-73
2021/11/05 05:25:13;;;;;;;47.50;23.77;;;;;;;7.60;84.94;100367.91;5021831;28;20474;-73
2021/11/05 05:27:41;;;;;;;49.70;24.23;;;;;;;7.65;84.85;100360.44;5023496;28;20493;-72
2021/11/05 05:30:10;;;;;;;44.47;22.40;;;;;;;7.85;83.91;100373.03;5021914;28;20493;-72
2021/11/05 05:32:39;;;;;;;47.40;23.33;;;;;;;7.61;84.64;100378.44;5022431;28;20460;-73
2021/11/05 05:35:06;;;;;;;48.03;23.20;;;;;;;7.64;84.40;100372.91;5019539;28;21022;-72
2021/11/05 05:37:33;;;;;;;51.13;24.30;;;;;;;7.73;84.32;100381.97;5020266;28;20463;-73
2021/11/05 05:39:59;;;;;;;45.80;21.97;;;;;;;7.60;84.50;100384.72;5002497;28;20483;-73
2021/11/05 05:42:26;;;;;;;40.30;21.60;;;;;;;7.52;84.79;100385.31;5016294;28;20542;-72
2021/11/05 05:44:52;;;;;;;45.73;22.80;;;;;;;7.61;84.55;100388.25;5021877;28;20499;-71
2021/11/05 05:47:19;;;;;;;42.63;20.63;;;;;;;7.59;84.39;100396.34;5020926;28;20479;-74
2021/11/05 05:49:48;;;;;;;40.17;21.07;;;;;;;7.62;84.46;100395.25;5022144;28;20506;-75
2021/11/05 05:52:15;;;;;;;39.10;20.20;;;;;;;7.63;84.35;100405.78;5035319;28;20501;-73
2021/11/05 05:54:41;;;;;;;46.50;21.20;;;;;;;7.73;83.76;100409.44;5038090;28;20501;-74
2021/11/05 05:57:09;;;;;;;46.03;22.60;;;;;;;7.59;84.71;100419.47;5038309;28;20501;-73
2021/11/05 05:59:35;;;;;;;42.20;21.10;;;;;;;7.76;83.96;100420.81;5041338;28;20481;-71
2021/11/05 06:02:02;;;;;;;40.67;19.60;;;;;;;7.76;83.88;100431.44;5004500;28;20506;-72
2021/11/05 06:04:29;;;;;;;45.80;22.07;;;;;;;7.63;84.31;100429.72;5016800;28;20462;-72
2021/11/05 06:06:56;;;;;;;47.03;22.83;;;;;;;7.78;83.49;100433.03;5036334;28;20791;-73
2021/11/05 06:09:25;;;;;;;41.40;20.37;;;;;;;7.75;84.04;100438.59;5040936;28;20468;-73
2021/11/05 06:11:52;;;;;;;39.57;20.20;;;;;;;7.71;83.74;100443.31;5038613;28;20572;-73
2021/11/05 06:14:18;;;;;;;43.07;21.07;;;;;;;7.58;84.18;100447.00;5037715;28;20951;-73
2021/11/05 06:16:45;;;;;;;45.17;22.57;;;;;;;7.84;83.73;100450.34;5040695;28;20492;-72
2021/11/05 06:19:12;;;;;;;45.70;20.77;;;;;;;7.68;84.00;100451.50;5039894;28;20498;-72
2021/11/05 06:21:39;;;;;;;35.93;20.57;;;;;;;7.63;84.54;100458.16;5040629;28;21083;-71
2021/11/05 06:24:07;;;;;;;36.87;19.73;;;;;;;7.56;84.50;100459.59;5027903;28;20475;-72
2021/11/05 06:26:34;;;;;;;35.80;19.00;;;;;;;7.46;84.59;100470.91;5033072;28;20520;-71
2021/11/05 06:29:03;;;;;;;36.40;18.10;;;;;;;7.71;83.94;100464.59;5040231;28;20958;-73
2021/11/05 06:31:30;;;;;;;26.70;15.70;;;;;;;7.60;84.29;100469.88;5027934;28;20729;-71
2021/11/05 06:33:56;;;;;;;32.57;17.93;;;;;;;7.69;83.73;100484.28;5021453;28;20475;-72
2021/11/05 06:36:23;;;;;;;34.27;18.53;;;;;;;7.56;84.39;100481.72;5014400;28;20505;-72
2021/11/05 06:38:51;;;;;;;43.17;22.47;;;;;;;7.58;84.40;100493.09;5021131;28;20473;-72
2021/11/05 06:41:19;;;;;;;35.77;17.50;;;;;;;7.50;84.80;100493.69;5024137;28;20478;-72
2021/11/05 06:43:47;;;;;;;41.20;18.77;;;;;;;7.52;84.61;100490.91;5019720;28;20451;-73
2021/11/05 06:46:13;;;;;;;40.57;19.83;;;;;;;7.65;84.39;100496.13;5027500;28;20552;-72
2021/11/05 06:48:40;;;;;;;38.13;18.80;;;;;;;7.83;83.83;100496.53;5021536;28;20466;-72
2021/11/05 06:51:07;;;;;;;35.57;17.20;;;;;;;7.92;84.72;100502.03;5027739;28;20508;-71
2021/11/05 06:53:33;;;;;;;31.37;16.20;;;;;;;8.15;84.27;100514.56;5040763;28;20524;-72
2021/11/05 06:56:00;;;;;;;34.93;16.43;;;;;;;8.11;83.25;100519.25;5039565;28;20469;-71
2021/11/05 06:58:34;;;;;;;37.40;17.20;;;;;;;8.04;82.77;100518.88;5039982;28;20430;-72
2021/11/05 07:01:01;;;;;;;35.27;18.27;;;;;;;7.85;83.53;100526.59;5040324;28;20472;-72
2021/11/05 07:03:28;;;;;;;31.63;16.73;;;;;;;7.86;83.68;100526.47;5040930;28;20880;-73
2021/11/05 07:05:54;;;;;;;33.47;16.57;;;;;;;7.83;83.76;100537.34;5038778;28;20470;-72
2021/11/05 07:08:21;;;;;;;32.13;16.33;;;;;;;7.88;83.59;100537.84;5040959;28;20493;-72
2021/11/05 07:10:48;;;;;;;30.03;16.17;;;;;;;7.68;83.96;100543.81;5039975;28;20561;-71
2021/11/05 07:13:14;;;;;;;31.50;16.43;;;;;;;7.78;83.85;100542.16;5039418;28;20493;-73
2021/11/05 07:15:42;;;;;;;35.40;18.63;;;;;;;7.78;83.80;100551.94;5039744;28;20497;-73
2021/11/05 07:18:09;;;;;;;33.17;17.93;;;;;;;7.65;84.81;100554.69;5040951;28;20502;-73
2021/11/05 07:20:36;;;;;;;33.60;16.07;;;;;;;7.70;84.50;100552.53;5038865;28;20974;-72
2021/11/05 07:23:04;;;;;;;34.03;16.40;;;;;;;7.78;84.49;100560.78;5040573;28;20457;-72
2021/11/05 07:25:31;;;;;;;32.10;16.57;;;;;;;7.66;84.73;100561.72;5039807;28;20466;-74
2021/11/05 07:27:58;;;;;;;31.20;15.17;;;;;;;7.65;84.80;100566.16;5039960;28;20445;-72
2021/11/05 07:30:25;;;;;;;32.10;16.30;;;;;;;7.83;84.37;100571.94;5037025;28;20471;-72
2021/11/05 07:32:53;;;;;;;33.07;16.90;;;;;;;7.86;84.18;100577.06;5020916;28;20923;-72
2021/11/05 07:35:22;;;;;;;30.73;16.03;;;;;;;8.00;83.81;100583.13;5021279;28;20521;-73
2021/11/05 07:37:49;;;;;;;32.27;15.83;;;;;;;7.95;83.70;100585.28;5037538;28;20928;-72
2021/11/05 07:40:17;;;;;;;29.30;16.90;;;;;;;8.08;83.55;100586.91;5039833;28;20457;-72
2021/11/05 07:42:44;;;;;;;37.10;16.80;;;;;;;8.28;82.70;100593.41;5040188;28;20480;-72
2021/11/05 07:45:13;;;;;;;31.83;15.33;;;;;;;8.09;82.98;100596.59;5039252;28;20428;-73
2021/11/05 07:47:40;;;;;;;29.23;15.87;;;;;;;8.21;82.76;100604.63;5038947;28;20474;-73
2021/11/05 07:50:10;;;;;;;33.40;17.77;;;;;;;8.19;83.16;100614.53;5039179;28;20543;-73
2021/11/05 07:52:36;;;;;;;30.13;15.20;;;;;;;8.30;82.83;100612.75;5038958;28;20462;-73
2021/11/05 07:55:05;;;;;;;28.03;14.77;;;;;;;8.38;82.27;100619.31;5040274;28;20504;-72
2021/11/05 07:57:31;;;;;;;28.67;15.17;;;;;;;8.16;82.95;100620.97;5040364;28;20837;-72
2021/11/05 07:59:58;;;;;;;22.40;13.57;;;;;;;8.01;83.51;100635.44;5041642;28;20453;-72
2021/11/05 08:02:25;;;;;;;24.70;13.67;;;;;;;8.02;83.66;100629.13;5043492;28;20903;-72
2021/11/05 08:04:52;;;;;;;27.33;14.03;;;;;;;8.22;83.13;100630.31;5043978;28;20794;-72
2021/11/05 08:07:23;;;;;;;24.47;13.50;;;;;;;8.30;82.76;100634.06;5042257;28;20482;-72
2021/11/05 08:09:49;;;;;;;26.20;15.60;;;;;;;8.07;83.29;100646.47;5026599;28;20442;-71
2021/11/05 08:12:16;;;;;;;26.97;15.40;;;;;;;8.28;82.91;100643.13;5040994;28;20983;-72
2021/11/05 08:14:43;;;;;;;29.60;13.80;;;;;;;8.28;82.62;100646.66;5042822;28;21065;-72
2021/11/05 08:17:10;;;;;;;27.40;15.20;;;;;;;7.97;83.61;100647.25;5025804;28;20507;-72
2021/11/05 08:19:37;;;;;;;34.40;15.87;;;;;;;8.21;83.13;100641.91;5023147;28;20447;-72
2021/11/05 08:22:04;;;;;;;32.30;14.40;;;;;;;8.25;83.09;100643.38;5022120;28;20551;-72
2021/11/05 08:24:32;;;;;;;38.47;17.90;;;;;;;8.18;83.52;100648.31;5023612;28;20913;-72
2021/11/05 08:26:59;;;;;;;30.90;16.77;;;;;;;8.26;83.16;100656.59;5038860;28;20545;-72
2021/11/05 08:29:26;;;;;;;33.63;16.40;;;;;;;8.39;82.66;100661.00;5042631;28;20439;-72
2021/11/05 08:31:53;;;;;;;36.50;16.53;;;;;;;8.47;82.72;100675.47;5042221;28;20474;-72
2021/11/05 08:34:19;;;;;;;29.97;16.47;;;;;;;8.62;82.14;100675.25;5023854;28;20898;-72
2021/11/05 08:36:46;;;;;;;32.83;17.57;;;;;;;8.49;82.21;100675.34;5033963;28;20500;-72
2021/11/05 08:39:13;;;;;;;34.40;16.03;;;;;;;8.37;83.05;100676.25;5043194;28;20510;-72
2021/11/05 08:41:42;;;;;;;32.50;16.70;;;;;;;8.47;82.64;100672.81;5029237;28;20478;-74
2021/11/05 08:44:10;;;;;;;37.53;16.97;;;;;;;8.71;81.58;100677.19;5022025;28;20442;-73
2021/11/05 08:46:37;;;;;;;28.70;14.03;;;;;;;8.71;81.72;100679.88;5022812;28;20482;-72
2021/11/05 08:49:09;;;;;;;32.20;16.60;;;;;;;8.64;81.68;100684.81;5023449;28;20481;-72
2021/11/05 08:51:36;;;;;;;30.23;15.10;;;;;;;8.67;81.86;100694.41;5020767;28;20486;-73
2021/11/05 08:54:03;;;;;;;26.70;14.40;;;;;;;8.51;82.47;100685.91;5023039;28;20498;-73
2021/11/05 08:56:29;;;;;;;33.60;15.93;;;;;;;8.69;81.98;100696.97;5021955;28;20486;-72
2021/11/05 08:58:58;;;;;;;29.53;17.00;;;;;;;8.60;82.38;100696.69;5022610;28;20787;-73
2021/11/05 09:01:25;;;;;;;28.50;15.20;;;;;;;8.48;82.78;100706.44;5033515;28;20493;-71
2021/11/05 09:03:52;;;;;;;32.50;14.40;;;;;;;8.61;82.53;100714.38;5037943;28;20815;-72
2021/11/05 09:06:19;;;;;;;27.60;13.23;;;;;;;8.52;82.54;100708.91;5031009;28;20481;-73
2021/11/05 09:08:47;;;;;;;24.23;15.07;;;;;;;8.64;82.31;100716.81;5043218;28;20454;-72
2021/11/05 09:11:13;;;;;;;24.37;12.70;;;;;;;8.69;82.45;100711.13;5032052;28;20509;-72
2021/11/05 09:13:40;;;;;;;25.27;14.00;;;;;;;8.82;81.96;100716.38;5021612;28;20510;-72
2021/11/05 09:16:08;;;;;;;26.37;14.43;;;;;;;8.60;82.34;100714.50;5029650;28;20695;-74
2021/11/05 09:18:35;;;;;;;26.93;13.17;;;;;;;8.92;81.44;100725.34;5042306;28;20921;-75
2021/11/05 09:21:04;;;;;;;27.33;13.63;;;;;;;9.19;80.67;100725.03;5040113;28;20915;-72
2021/11/05 09:23:30;;;;;;;27.97;15.30;;;;;;;9.20;80.73;100734.75;5042809;28;20951;-71
2021/11/05 09:25:58;;;;;;;28.50;14.63;;;;;;;9.11;80.78;100726.59;5040140;28;20507;-73
2021/11/05 09:28:25;;;;;;;28.10;13.83;;;;;;;9.06;80.96;100742.94;5041016;28;20837;-72
2021/11/05 09:30:51;;;;;;;28.07;14.60;;;;;;;9.12;80.87;100741.66;5041401;28;20540;-72
2021/11/05 09:33:19;;;;;;;24.97;13.30;;;;;;;9.22;80.53;100742.63;5042430;28;20469;-73
2021/11/05 09:35:46;;;;;;;25.30;13.13;;;;;;;8.96;81.09;100748.16;5035511;28;20478;-71
2021/11/05 09:38:14;;;;;;;29.33;14.90;;;;;;;9.16;80.81;100745.78;5041853;28;20986;-71
2021/11/05 09:40:40;;;;;;;28.60;13.73;;;;;;;9.28;80.55;100757.31;5036119;28;20476;-71
2021/11/05 09:43:07;;;;;;;21.43;12.80;;;;;;;9.23;80.27;100757.66;5021135;28;20539;-72
2021/11/05 09:45:34;;;;;;;28.50;14.33;;;;;;;9.37;80.09;100760.13;5024815;28;20473;-72
2021/11/05 09:48:02;;;;;;;26.50;13.23;;;;;;;9.41;79.68;100766.06;5041834;28;20871;-72
2021/11/05 09:50:30;;;;;;;25.20;13.13;;;;;;;9.28;80.38;100767.97;5040193;28;20493;-72
2021/11/05 09:52:57;;;;;;;22.30;13.00;;;;;;;9.14;80.88;100764.56;5039124;28;20442;-71
2021/11/05 09:55:24;;;;;;;18.40;12.27;;;;;;;9.46;79.97;100777.22;5041238;28;20986;-72
2021/11/05 09:57:51;;;;;;;19.47;11.50;;;;;;;9.48;79.52;100772.63;5040871;28;20785;-73
2021/11/05 10:00:20;;;;;;;21.97;12.40;;;;;;;9.65;79.00;100779.25;5040476;28;20700;-72
2021/11/05 10:02:47;;;;;;;22.13;13.50;;;;;;;9.45;80.04;100794.19;5039905;28;20517;-72
2021/11/05 10:05:16;;;;;;;21.63;13.10;;;;;;;9.41;79.86;100785.59;5040266;28;20993;-71
2021/11/05 10:07:48;;;;;;;23.50;12.40;;;;;;;9.40;79.95;100796.38;5041078;28;20991;-72
2021/11/05 10:10:15;;;;;;;24.37;13.00;;;;;;;9.60;79.36;100798.34;5040999;28;20488;-72
2021/11/05 10:12:53;;;;;;;22.03;13.00;;;;;;;9.43;80.35;100799.66;5040448;28;20450;-73
2021/11/05 10:15:20;;;;;;;25.33;12.33;;;;;;;9.71;79.50;100794.81;5003539;28;20503;-72
2021/11/05 10:17:47;;;;;;;22.50;12.00;;;;;;;9.39;80.31;100802.66;5021872;28;20481;-73
2021/11/05 10:20:13;;;;;;;23.63;12.30;;;;;;;9.24;80.55;100813.56;5019339;28;20469;-73
2021/11/05 10:22:47;;;;;;;22.17;12.73;;;;;;;9.31;80.50;100807.78;5020621;28;20516;-73
2021/11/05 10:25:22;;;;;;;24.20;14.33;;;;;;;9.37;80.32;100808.16;5037766;28;20465;-71
2021/11/05 10:28:00;;;;;;;24.90;12.93;;;;;;;9.50;80.32;100802.69;5040217;28;20544;-73
2021/11/05 10:30:27;;;;;;;28.10;12.40;;;;;;;9.63;79.88;100807.91;5040529;28;20584;-73
2021/11/05 10:32:54;;;;;;;25.40;12.87;;;;;;;9.86;79.48;100811.44;5041293;28;20476;-73
2021/11/05 10:35:22;;;;;;;20.83;12.33;;;;;;;9.59;79.14;100798.44;5039128;28;20481;-72
2021/11/05 10:37:49;;;;;;;23.33;12.17;;;;;;;9.63;79.68;100817.75;5039689;28;20458;-73
2021/11/05 10:40:16;;;;;;;20.33;11.70;;;;;;;9.45;80.04;100820.88;5040048;28;20500;-73
2021/11/05 10:42:47;;;;;;;24.40;11.70;;;;;;;9.39;79.68;100824.88;5040400;28;20461;-72
2021/11/05 10:45:15;;;;;;;26.33;12.23;;;;;;;9.39;80.44;100832.03;5039615;28;20468;-71
2021/11/05 10:48:02;;;;;;;17.87;11.87;;;;;;;9.27;80.95;100825.84;5041115;28;20430;-72
2021/11/05 10:50:31;;;;;;;24.07;12.60;;;;;;;9.46;80.80;100833.28;5039375;28;20477;-72
2021/11/05 10:53:06;;;;;;;23.23;12.67;;;;;;;9.89;79.03;100824.53;5040720;28;20542;-73
2021/11/05 10:55:42;;;;;;;17.03;10.33;;;;;;;9.96;78.71;100830.25;5040104;28;20469;-72
2021/11/05 10:58:15;;;;;;;19.70;11.37;;;;;;;9.87;79.13;100836.31;5040511;28;20465;-72
2021/11/05 11:00:43;;;;;;;16.63;10.40;;;;;;;9.72;78.74;100835.69;5039889;28;20465;-72
2021/11/05 11:03:12;;;;;;;20.53;10.90;;;;;;;10.01;78.42;100844.09;5040940;28;20892;-72
2021/11/05 11:05:40;;;;;;;21.50;10.70;;;;;;;9.97;77.79;100834.63;5039418;28;20500;-73
2021/11/05 11:08:10;;;;;;;20.00;11.40;;;;;;;10.04;78.06;100838.50;5039934;28;20454;-73
2021/11/05 11:10:39;;;;;;;19.77;10.50;;;;;;;10.23;77.47;100842.38;5040183;28;20469;-73
2021/11/05 11:13:06;;;;;;;17.97;10.80;;;;;;;10.18;77.81;100838.22;5039370;28;20511;-73
2021/11/05 11:15:36;;;;;;;18.10;9.80;;;;;;;10.16;77.62;100842.84;5040228;28;20480;-74
2021/11/05 11:18:03;;;;;;;19.53;10.50;;;;;;;10.28;77.75;100837.50;5040715;28;20464;-74